sensor_id;sensor_type;location;lat;lon;timestamp;P1;durP1;ratioP1;P2;durP2;ratioP2
14169;SDS011;63889;50.596;8.690;2023-04-16T00:00:05;8.73;;;4.03;;
14169;SDS011;63889;50.596;8.690;2023-04-16T00:02:31;6.30;;;3.03;;
14169;SDS011;63889;50.596;8.690;2023-04-16T00:04:57;9.30;;;4.13;;
14169;SDS011;63889;50.596;8.690;2023-04-16T00:07:23;6.07;;;3.35;;
14169;SDS011;63889;50.596;8.690;2023-04-16T00:09:48;6.38;;;3.92;;
14169;SDS011;63889;50.596;8.690;2023-04-16T00:12:14;8.88;;;4.13;;
14169;SDS011;63889;50.596;8.690;2023-04-16T00:14:40;6.85;;;3.70;;
14169;SDS011;63889;50.596;8.690;2023-04-16T00:17:07;5.43;;;3.45;;
14169;SDS011;63889;50.596;8.690;2023-04-16T00:19:33;8.32;;;3.67;;
14169;SDS011;63889;50.596;8.690;2023-04-16T00:21:58;7.32;;;3.60;;
14169;SDS011;63889;50.596;8.690;2023-04-16T00:24:24;7.40;;;3.08;;
14169;SDS011;63889;50.596;8.690;2023-04-16T00:26:50;7.60;;;3.30;;
14169;SDS011;63889;50.596;8.690;2023-04-16T00:29:15;5.35;;;3.42;;
14169;SDS011;63889;50.596;8.690;2023-04-16T00:31:41;5.13;;;3.08;;
14169;SDS011;63889;50.596;8.690;2023-04-16T00:34:06;6.03;;;3.17;;
14169;SDS011;63889;50.596;8.690;2023-04-16T00:36:32;5.68;;;3.40;;
14169;SDS011;63889;50.596;8.690;2023-04-16T00:38:57;6.90;;;3.38;;
14169;SDS011;63889;50.596;8.690;2023-04-16T00:41:23;6.35;;;3.60;;
14169;SDS011;63889;50.596;8.690;2023-04-16T00:43:48;6.07;;;3.30;;
14169;SDS011;63889;50.596;8.690;2023-04-16T00:46:15;5.72;;;3.13;;
14169;SDS011;63889;50.596;8.690;2023-04-16T00:48:41;7.22;;;3.58;;
14169;SDS011;63889;50.596;8.690;2023-04-16T00:51:08;8.98;;;3.88;;
14169;SDS011;63889;50.596;8.690;2023-04-16T00:53:34;7.18;;;3.70;;
14169;SDS011;63889;50.596;8.690;2023-04-16T00:56:04;9.63;;;3.95;;
14169;SDS011;63889;50.596;8.690;2023-04-16T00:58:30;6.28;;;3.85;;
14169;SDS011;63889;50.596;8.690;2023-04-16T01:00:57;6.07;;;3.08;;
14169;SDS011;63889;50.596;8.690;2023-04-16T01:03:24;6.93;;;3.70;;
14169;SDS011;63889;50.596;8.690;2023-04-16T01:05:58;6.38;;;3.63;;
14169;SDS011;63889;50.596;8.690;2023-04-16T01:08:25;8.02;;;4.35;;
14169;SDS011;63889;50.596;8.690;2023-04-16T01:10:50;7.32;;;4.00;;
14169;SDS011;63889;50.596;8.690;2023-04-16T01:13:16;7.50;;;3.67;;
14169;SDS011;63889;50.596;8.690;2023-04-16T01:15:41;6.38;;;3.65;;
14169;SDS011;63889;50.596;8.690;2023-04-16T01:18:16;7.93;;;4.18;;
14169;SDS011;63889;50.596;8.690;2023-04-16T01:20:47;6.78;;;3.88;;
14169;SDS011;63889;50.596;8.690;2023-04-16T01:23:13;5.85;;;3.42;;
14169;SDS011;63889;50.596;8.690;2023-04-16T01:25:39;8.40;;;4.32;;
14169;SDS011;63889;50.596;8.690;2023-04-16T01:28:05;6.57;;;3.45;;
14169;SDS011;63889;50.596;8.690;2023-04-16T01:30:31;8.35;;;4.30;;
14169;SDS011;63889;50.596;8.690;2023-04-16T01:32:57;9.43;;;4.38;;
14169;SDS011;63889;50.596;8.690;2023-04-16T01:35:23;8.68;;;5.03;;
14169;SDS011;63889;50.596;8.690;2023-04-16T01:37:49;8.52;;;4.45;;
14169;SDS011;63889;50.596;8.690;2023-04-16T01:40:15;7.13;;;4.40;;
14169;SDS011;63889;50.596;8.690;2023-04-16T01:42:41;7.78;;;4.40;;
14169;SDS011;63889;50.596;8.690;2023-04-16T01:45:07;9.48;;;5.00;;
14169;SDS011;63889;50.596;8.690;2023-04-16T01:47:32;7.22;;;4.13;;
14169;SDS011;63889;50.596;8.690;2023-04-16T01:49:58;14.02;;;4.72;;
14169;SDS011;63889;50.596;8.690;2023-04-16T01:52:26;8.23;;;4.18;;
14169;SDS011;63889;50.596;8.690;2023-04-16T01:54:51;8.70;;;4.07;;
14169;SDS011;63889;50.596;8.690;2023-04-16T01:57:17;10.40;;;5.07;;
14169;SDS011;63889;50.596;8.690;2023-04-16T01:59:42;10.00;;;4.82;;
14169;SDS011;63889;50.596;8.690;2023-04-16T02:02:08;10.10;;;4.38;;
14169;SDS011;63889;50.596;8.690;2023-04-16T02:04:36;15.55;;;4.82;;
14169;SDS011;63889;50.596;8.690;2023-04-16T02:07:06;11.50;;;4.63;;
14169;SDS011;63889;50.596;8.690;2023-04-16T02:09:35;9.73;;;4.65;;
14169;SDS011;63889;50.596;8.690;2023-04-16T02:12:02;9.68;;;4.40;;
14169;SDS011;63889;50.596;8.690;2023-04-16T02:14:28;9.57;;;4.60;;
14169;SDS011;63889;50.596;8.690;2023-04-16T02:16:53;12.82;;;4.35;;
14169;SDS011;63889;50.596;8.690;2023-04-16T02:19:20;13.93;;;4.95;;
14169;SDS011;63889;50.596;8.690;2023-04-16T02:21:46;8.45;;;5.00;;
14169;SDS011;63889;50.596;8.690;2023-04-16T02:24:13;11.23;;;4.68;;
14169;SDS011;63889;50.596;8.690;2023-04-16T02:26:38;9.13;;;5.03;;
14169;SDS011;63889;50.596;8.690;2023-04-16T02:29:04;8.70;;;4.80;;
14169;SDS011;63889;50.596;8.690;2023-04-16T02:31:30;8.20;;;4.70;;
14169;SDS011;63889;50.596;8.690;2023-04-16T02:33:56;8.75;;;5.13;;
14169;SDS011;63889;50.596;8.690;2023-04-16T02:36:21;8.23;;;4.40;;
14169;SDS011;63889;50.596;8.690;2023-04-16T02:38:47;7.97;;;4.20;;
14169;SDS011;63889;50.596;8.690;2023-04-16T02:41:13;8.30;;;4.15;;
14169;SDS011;63889;50.596;8.690;2023-04-16T02:43:38;10.65;;;4.95;;
14169;SDS011;63889;50.596;8.690;2023-04-16T02:46:04;12.02;;;5.65;;
14169;SDS011;63889;50.596;8.690;2023-04-16T02:48:30;10.63;;;5.13;;
14169;SDS011;63889;50.596;8.690;2023-04-16T02:50:55;12.13;;;5.65;;
14169;SDS011;63889;50.596;8.690;2023-04-16T02:53:21;10.55;;;5.00;;
14169;SDS011;63889;50.596;8.690;2023-04-16T02:55:50;10.48;;;5.57;;
14169;SDS011;63889;50.596;8.690;2023-04-16T02:58:17;9.48;;;5.00;;
14169;SDS011;63889;50.596;8.690;2023-04-16T03:00:43;9.85;;;5.28;;
14169;SDS011;63889;50.596;8.690;2023-04-16T03:03:09;9.85;;;5.95;;
14169;SDS011;63889;50.596;8.690;2023-04-16T03:05:34;9.75;;;5.05;;
14169;SDS011;63889;50.596;8.690;2023-04-16T03:08:00;10.18;;;5.78;;
14169;SDS011;63889;50.596;8.690;2023-04-16T03:10:25;11.10;;;6.05;;
14169;SDS011;63889;50.596;8.690;2023-04-16T03:12:51;9.98;;;5.57;;
14169;SDS011;63889;50.596;8.690;2023-04-16T03:15:16;9.00;;;5.40;;
14169;SDS011;63889;50.596;8.690;2023-04-16T03:17:42;7.82;;;4.90;;
14169;SDS011;63889;50.596;8.690;2023-04-16T03:20:07;8.10;;;4.53;;
14169;SDS011;63889;50.596;8.690;2023-04-16T03:22:34;11.23;;;6.00;;
14169;SDS011;63889;50.596;8.690;2023-04-16T03:24:59;10.77;;;5.05;;
14169;SDS011;63889;50.596;8.690;2023-04-16T03:27:25;9.90;;;4.57;;
14169;SDS011;63889;50.596;8.690;2023-04-16T03:29:50;9.75;;;4.78;;
14169;SDS011;63889;50.596;8.690;2023-04-16T03:32:16;9.07;;;4.80;;
14169;SDS011;63889;50.596;8.690;2023-04-16T03:34:42;8.95;;;4.93;;
14169;SDS011;63889;50.596;8.690;2023-04-16T03:37:08;9.75;;;5.45;;
14169;SDS011;63889;50.596;8.690;2023-04-16T03:39:36;8.10;;;4.75;;
14169;SDS011;63889;50.596;8.690;2023-04-16T03:42:02;7.22;;;4.50;;
14169;SDS011;63889;50.596;8.690;2023-04-16T03:44:28;8.70;;;4.82;;
14169;SDS011;63889;50.596;8.690;2023-04-16T03:46:54;10.68;;;5.00;;
14169;SDS011;63889;50.596;8.690;2023-04-16T03:49:19;10.55;;;5.00;;
14169;SDS011;63889;50.596;8.690;2023-04-16T03:51:45;9.20;;;4.97;;
14169;SDS011;63889;50.596;8.690;2023-04-16T03:54:11;8.52;;;4.22;;
14169;SDS011;63889;50.596;8.690;2023-04-16T03:56:38;8.77;;;4.68;;
14169;SDS011;63889;50.596;8.690;2023-04-16T03:59:04;7.55;;;4.15;;
14169;SDS011;63889;50.596;8.690;2023-04-16T04:01:30;6.70;;;4.40;;
14169;SDS011;63889;50.596;8.690;2023-04-16T04:03:56;9.93;;;4.00;;
14169;SDS011;63889;50.596;8.690;2023-04-16T04:06:21;10.02;;;4.28;;
14169;SDS011;63889;50.596;8.690;2023-04-16T04:08:47;7.68;;;4.30;;
14169;SDS011;63889;50.596;8.690;2023-04-16T04:11:12;8.48;;;4.18;;
14169;SDS011;63889;50.596;8.690;2023-04-16T04:13:38;8.98;;;4.00;;
14169;SDS011;63889;50.596;8.690;2023-04-16T04:16:03;6.15;;;3.60;;
14169;SDS011;63889;50.596;8.690;2023-04-16T04:18:29;6.38;;;3.72;;
14169;SDS011;63889;50.596;8.690;2023-04-16T04:20:55;7.03;;;3.97;;
14169;SDS011;63889;50.596;8.690;2023-04-16T04:23:21;6.78;;;3.88;;
14169;SDS011;63889;50.596;8.690;2023-04-16T04:25:47;5.45;;;3.47;;
14169;SDS011;63889;50.596;8.690;2023-04-16T04:28:13;6.47;;;3.63;;
14169;SDS011;63889;50.596;8.690;2023-04-16T04:30:39;8.07;;;4.55;;
14169;SDS011;63889;50.596;8.690;2023-04-16T04:33:05;9.10;;;4.18;;
14169;SDS011;63889;50.596;8.690;2023-04-16T04:35:31;5.13;;;3.47;;
14169;SDS011;63889;50.596;8.690;2023-04-16T04:37:57;9.15;;;3.85;;
14169;SDS011;63889;50.596;8.690;2023-04-16T04:40:22;7.40;;;3.72;;
14169;SDS011;63889;50.596;8.690;2023-04-16T04:42:48;6.72;;;3.53;;
14169;SDS011;63889;50.596;8.690;2023-04-16T04:45:13;6.90;;;3.83;;
14169;SDS011;63889;50.596;8.690;2023-04-16T04:47:39;7.07;;;4.03;;
14169;SDS011;63889;50.596;8.690;2023-04-16T04:50:04;7.60;;;4.68;;
14169;SDS011;63889;50.596;8.690;2023-04-16T04:52:30;8.02;;;4.88;;
14169;SDS011;63889;50.596;8.690;2023-04-16T04:54:56;6.10;;;3.80;;
14169;SDS011;63889;50.596;8.690;2023-04-16T04:57:21;8.25;;;4.25;;
14169;SDS011;63889;50.596;8.690;2023-04-16T04:59:47;10.43;;;4.65;;
14169;SDS011;63889;50.596;8.690;2023-04-16T05:02:12;10.80;;;4.20;;
14169;SDS011;63889;50.596;8.690;2023-04-16T05:04:38;7.90;;;3.92;;
14169;SDS011;63889;50.596;8.690;2023-04-16T05:07:03;10.43;;;5.13;;
14169;SDS011;63889;50.596;8.690;2023-04-16T05:09:30;8.45;;;4.82;;
14169;SDS011;63889;50.596;8.690;2023-04-16T05:11:56;12.05;;;5.60;;
14169;SDS011;63889;50.596;8.690;2023-04-16T05:14:21;10.52;;;5.20;;
14169;SDS011;63889;50.596;8.690;2023-04-16T05:16:47;11.57;;;5.22;;
14169;SDS011;63889;50.596;8.690;2023-04-16T05:19:12;11.48;;;5.32;;
14169;SDS011;63889;50.596;8.690;2023-04-16T05:21:38;8.38;;;4.88;;
14169;SDS011;63889;50.596;8.690;2023-04-16T05:24:04;13.98;;;6.05;;
14169;SDS011;63889;50.596;8.690;2023-04-16T05:26:30;13.18;;;6.35;;
14169;SDS011;63889;50.596;8.690;2023-04-16T05:28:55;12.55;;;5.93;;
14169;SDS011;63889;50.596;8.690;2023-04-16T05:31:21;12.75;;;5.95;;
14169;SDS011;63889;50.596;8.690;2023-04-16T05:33:46;11.90;;;5.65;;
14169;SDS011;63889;50.596;8.690;2023-04-16T05:36:12;13.73;;;6.47;;
14169;SDS011;63889;50.596;8.690;2023-04-16T05:38:37;14.93;;;6.90;;
14169;SDS011;63889;50.596;8.690;2023-04-16T05:41:03;13.18;;;6.03;;
14169;SDS011;63889;50.596;8.690;2023-04-16T05:43:28;13.18;;;6.28;;
14169;SDS011;63889;50.596;8.690;2023-04-16T05:45:54;15.48;;;6.82;;
14169;SDS011;63889;50.596;8.690;2023-04-16T05:48:20;12.02;;;6.20;;
14169;SDS011;63889;50.596;8.690;2023-04-16T05:50:45;13.07;;;6.55;;
14169;SDS011;63889;50.596;8.690;2023-04-16T05:53:11;12.55;;;6.75;;
14169;SDS011;63889;50.596;8.690;2023-04-16T05:55:38;13.52;;;6.10;;
14169;SDS011;63889;50.596;8.690;2023-04-16T05:58:03;12.40;;;6.40;;
14169;SDS011;63889;50.596;8.690;2023-04-16T06:00:29;19.23;;;6.15;;
14169;SDS011;63889;50.596;8.690;2023-04-16T06:02:56;12.32;;;6.40;;
14169;SDS011;63889;50.596;8.690;2023-04-16T06:05:21;14.40;;;6.78;;
14169;SDS011;63889;50.596;8.690;2023-04-16T06:07:47;13.73;;;6.60;;
14169;SDS011;63889;50.596;8.690;2023-04-16T06:10:13;10.80;;;6.03;;
14169;SDS011;63889;50.596;8.690;2023-04-16T06:12:38;13.38;;;7.03;;
14169;SDS011;63889;50.596;8.690;2023-04-16T06:15:04;16.33;;;6.78;;
14169;SDS011;63889;50.596;8.690;2023-04-16T06:17:30;13.73;;;6.90;;
14169;SDS011;63889;50.596;8.690;2023-04-16T06:19:56;16.52;;;8.57;;
14169;SDS011;63889;50.596;8.690;2023-04-16T06:22:21;13.45;;;6.65;;
14169;SDS011;63889;50.596;8.690;2023-04-16T06:24:47;16.20;;;7.25;;
14169;SDS011;63889;50.596;8.690;2023-04-16T06:27:13;12.48;;;6.70;;
14169;SDS011;63889;50.596;8.690;2023-04-16T06:29:39;13.23;;;7.05;;
14169;SDS011;63889;50.596;8.690;2023-04-16T06:32:04;14.93;;;7.97;;
14169;SDS011;63889;50.596;8.690;2023-04-16T06:34:30;18.23;;;7.28;;
14169;SDS011;63889;50.596;8.690;2023-04-16T06:36:55;15.10;;;7.68;;
14169;SDS011;63889;50.596;8.690;2023-04-16T06:39:21;19.05;;;7.57;;
14169;SDS011;63889;50.596;8.690;2023-04-16T06:41:47;18.15;;;7.82;;
14169;SDS011;63889;50.596;8.690;2023-04-16T06:44:13;13.73;;;7.13;;
14169;SDS011;63889;50.596;8.690;2023-04-16T06:46:38;15.35;;;7.53;;
14169;SDS011;63889;50.596;8.690;2023-04-16T06:49:04;14.00;;;7.05;;
14169;SDS011;63889;50.596;8.690;2023-04-16T06:51:30;15.35;;;7.40;;
14169;SDS011;63889;50.596;8.690;2023-04-16T06:53:56;12.88;;;7.30;;
14169;SDS011;63889;50.596;8.690;2023-04-16T06:56:21;13.60;;;6.72;;
14169;SDS011;63889;50.596;8.690;2023-04-16T06:58:47;17.70;;;7.13;;
14169;SDS011;63889;50.596;8.690;2023-04-16T07:01:12;16.83;;;7.32;;
14169;SDS011;63889;50.596;8.690;2023-04-16T07:03:38;16.83;;;7.93;;
14169;SDS011;63889;50.596;8.690;2023-04-16T07:06:03;18.13;;;7.72;;
14169;SDS011;63889;50.596;8.690;2023-04-16T07:08:29;16.25;;;7.68;;
14169;SDS011;63889;50.596;8.690;2023-04-16T07:10:55;15.25;;;7.80;;
14169;SDS011;63889;50.596;8.690;2023-04-16T07:13:20;16.20;;;7.13;;
14169;SDS011;63889;50.596;8.690;2023-04-16T07:15:46;17.17;;;7.63;;
14169;SDS011;63889;50.596;8.690;2023-04-16T07:18:12;19.02;;;8.85;;
14169;SDS011;63889;50.596;8.690;2023-04-16T07:20:37;17.90;;;7.60;;
14169;SDS011;63889;50.596;8.690;2023-04-16T07:23:03;15.35;;;8.18;;
14169;SDS011;63889;50.596;8.690;2023-04-16T07:25:28;17.27;;;7.63;;
14169;SDS011;63889;50.596;8.690;2023-04-16T07:27:54;15.60;;;7.72;;
14169;SDS011;63889;50.596;8.690;2023-04-16T07:30:19;15.02;;;7.75;;
14169;SDS011;63889;50.596;8.690;2023-04-16T07:32:45;17.33;;;7.95;;
14169;SDS011;63889;50.596;8.690;2023-04-16T07:35:10;15.85;;;7.60;;
14169;SDS011;63889;50.596;8.690;2023-04-16T07:37:36;11.90;;;6.60;;
14169;SDS011;63889;50.596;8.690;2023-04-16T07:40:01;14.55;;;7.18;;
14169;SDS011;63889;50.596;8.690;2023-04-16T07:42:28;16.50;;;8.18;;
14169;SDS011;63889;50.596;8.690;2023-04-16T07:44:54;15.13;;;7.00;;
14169;SDS011;63889;50.596;8.690;2023-04-16T07:47:19;16.55;;;7.97;;
14169;SDS011;63889;50.596;8.690;2023-04-16T07:49:47;14.02;;;7.05;;
14169;SDS011;63889;50.596;8.690;2023-04-16T07:52:13;17.90;;;8.35;;
14169;SDS011;63889;50.596;8.690;2023-04-16T07:54:38;14.68;;;7.43;;
14169;SDS011;63889;50.596;8.690;2023-04-16T07:57:04;15.50;;;7.97;;
14169;SDS011;63889;50.596;8.690;2023-04-16T07:59:29;14.27;;;7.53;;
14169;SDS011;63889;50.596;8.690;2023-04-16T08:01:55;16.27;;;7.95;;
14169;SDS011;63889;50.596;8.690;2023-04-16T08:04:21;13.10;;;7.68;;
14169;SDS011;63889;50.596;8.690;2023-04-16T08:06:49;14.13;;;7.50;;
14169;SDS011;63889;50.596;8.690;2023-04-16T08:09:15;16.60;;;7.70;;
14169;SDS011;63889;50.596;8.690;2023-04-16T08:11:42;13.10;;;6.82;;
14169;SDS011;63889;50.596;8.690;2023-04-16T08:14:08;13.23;;;6.72;;
14169;SDS011;63889;50.596;8.690;2023-04-16T08:16:33;15.90;;;7.93;;
14169;SDS011;63889;50.596;8.690;2023-04-16T08:18:59;12.60;;;6.68;;
14169;SDS011;63889;50.596;8.690;2023-04-16T08:21:25;13.13;;;7.45;;
14169;SDS011;63889;50.596;8.690;2023-04-16T08:23:52;13.38;;;7.38;;
14169;SDS011;63889;50.596;8.690;2023-04-16T08:26:18;19.35;;;8.43;;
14169;SDS011;63889;50.596;8.690;2023-04-16T08:28:44;11.43;;;6.95;;
14169;SDS011;63889;50.596;8.690;2023-04-16T08:31:10;12.07;;;7.13;;
14169;SDS011;63889;50.596;8.690;2023-04-16T08:33:35;13.93;;;7.05;;
14169;SDS011;63889;50.596;8.690;2023-04-16T08:36:01;14.60;;;7.35;;
14169;SDS011;63889;50.596;8.690;2023-04-16T08:38:26;11.20;;;6.20;;
14169;SDS011;63889;50.596;8.690;2023-04-16T08:40:52;13.93;;;7.20;;
14169;SDS011;63889;50.596;8.690;2023-04-16T08:43:20;13.38;;;7.05;;
14169;SDS011;63889;50.596;8.690;2023-04-16T08:45:47;12.77;;;6.63;;
14169;SDS011;63889;50.596;8.690;2023-04-16T08:48:13;11.88;;;6.78;;
14169;SDS011;63889;50.596;8.690;2023-04-16T08:50:39;13.15;;;7.13;;
14169;SDS011;63889;50.596;8.690;2023-04-16T08:53:06;11.20;;;6.53;;
14169;SDS011;63889;50.596;8.690;2023-04-16T08:55:36;10.35;;;5.70;;
14169;SDS011;63889;50.596;8.690;2023-04-16T08:58:08;14.35;;;7.10;;
14169;SDS011;63889;50.596;8.690;2023-04-16T09:00:38;13.45;;;6.47;;
14169;SDS011;63889;50.596;8.690;2023-04-16T09:03:05;11.45;;;6.25;;
14169;SDS011;63889;50.596;8.690;2023-04-16T09:05:31;11.70;;;6.25;;
14169;SDS011;63889;50.596;8.690;2023-04-16T09:07:57;10.48;;;6.72;;
14169;SDS011;63889;50.596;8.690;2023-04-16T09:10:24;12.88;;;7.28;;
14169;SDS011;63889;50.596;8.690;2023-04-16T09:12:50;12.18;;;6.93;;
14169;SDS011;63889;50.596;8.690;2023-04-16T09:15:19;12.10;;;6.63;;
14169;SDS011;63889;50.596;8.690;2023-04-16T09:17:45;14.15;;;6.88;;
14169;SDS011;63889;50.596;8.690;2023-04-16T09:20:11;12.10;;;6.68;;
14169;SDS011;63889;50.596;8.690;2023-04-16T09:22:37;12.65;;;6.70;;
14169;SDS011;63889;50.596;8.690;2023-04-16T09:25:04;12.07;;;6.72;;
14169;SDS011;63889;50.596;8.690;2023-04-16T09:27:30;12.70;;;6.53;;
14169;SDS011;63889;50.596;8.690;2023-04-16T09:29:56;11.68;;;6.70;;
14169;SDS011;63889;50.596;8.690;2023-04-16T09:32:26;12.48;;;6.75;;
14169;SDS011;63889;50.596;8.690;2023-04-16T09:34:56;10.70;;;6.63;;
14169;SDS011;63889;50.596;8.690;2023-04-16T09:37:26;12.13;;;6.65;;
14169;SDS011;63889;50.596;8.690;2023-04-16T09:42:28;13.00;;;7.32;;
14169;SDS011;63889;50.596;8.690;2023-04-16T09:44:55;11.48;;;7.20;;
14169;SDS011;63889;50.596;8.690;2023-04-16T09:47:21;12.75;;;7.18;;
14169;SDS011;63889;50.596;8.690;2023-04-16T09:49:49;11.40;;;7.00;;
14169;SDS011;63889;50.596;8.690;2023-04-16T09:52:16;12.63;;;7.50;;
14169;SDS011;63889;50.596;8.690;2023-04-16T09:57:22;17.33;;;6.70;;
14169;SDS011;63889;50.596;8.690;2023-04-16T09:59:52;12.27;;;7.50;;
14169;SDS011;63889;50.596;8.690;2023-04-16T10:02:24;15.13;;;7.68;;
14169;SDS011;63889;50.596;8.690;2023-04-16T10:04:51;12.82;;;7.43;;
14169;SDS011;63889;50.596;8.690;2023-04-16T10:07:18;14.55;;;7.82;;
14169;SDS011;63889;50.596;8.690;2023-04-16T10:09:45;17.77;;;8.60;;
14169;SDS011;63889;50.596;8.690;2023-04-16T10:12:16;15.38;;;8.15;;
14169;SDS011;63889;50.596;8.690;2023-04-16T10:14:42;13.48;;;7.78;;
14169;SDS011;63889;50.596;8.690;2023-04-16T10:17:07;13.45;;;8.07;;
14169;SDS011;63889;50.596;8.690;2023-04-16T10:19:33;15.27;;;8.40;;
14169;SDS011;63889;50.596;8.690;2023-04-16T10:21:59;14.18;;;7.72;;
14169;SDS011;63889;50.596;8.690;2023-04-16T10:24:29;14.30;;;8.27;;
14169;SDS011;63889;50.596;8.690;2023-04-16T10:26:56;17.38;;;9.02;;
14169;SDS011;63889;50.596;8.690;2023-04-16T10:29:22;13.73;;;7.93;;
14169;SDS011;63889;50.596;8.690;2023-04-16T10:31:50;14.68;;;8.13;;
14169;SDS011;63889;50.596;8.690;2023-04-16T10:34:16;13.88;;;8.10;;
14169;SDS011;63889;50.596;8.690;2023-04-16T10:36:45;14.02;;;7.63;;
14169;SDS011;63889;50.596;8.690;2023-04-16T10:39:20;17.20;;;8.98;;
14169;SDS011;63889;50.596;8.690;2023-04-16T10:41:47;14.48;;;7.93;;
14169;SDS011;63889;50.596;8.690;2023-04-16T10:44:17;13.45;;;8.20;;
14169;SDS011;63889;50.596;8.690;2023-04-16T10:46:46;18.70;;;9.02;;
14169;SDS011;63889;50.596;8.690;2023-04-16T10:49:16;17.13;;;8.82;;
14169;SDS011;63889;50.596;8.690;2023-04-16T10:52:26;14.13;;;8.23;;
14169;SDS011;63889;50.596;8.690;2023-04-16T10:54:35;15.70;;;8.95;;
14169;SDS011;63889;50.596;8.690;2023-04-16T10:57:05;17.10;;;9.45;;
14169;SDS011;63889;50.596;8.690;2023-04-16T10:59:33;20.40;;;10.00;;
14169;SDS011;63889;50.596;8.690;2023-04-16T11:02:01;17.27;;;9.57;;
14169;SDS011;63889;50.596;8.690;2023-04-16T11:04:53;19.00;;;10.55;;
14169;SDS011;63889;50.596;8.690;2023-04-16T11:07:31;18.73;;;10.25;;
14169;SDS011;63889;50.596;8.690;2023-04-16T11:09:58;16.50;;;8.55;;
14169;SDS011;63889;50.596;8.690;2023-04-16T11:12:33;17.00;;;9.55;;
14169;SDS011;63889;50.596;8.690;2023-04-16T11:17:42;16.92;;;9.07;;
14169;SDS011;63889;50.596;8.690;2023-04-16T11:20:13;17.48;;;8.85;;
14169;SDS011;63889;50.596;8.690;2023-04-16T11:22:50;19.58;;;10.15;;
14169;SDS011;63889;50.596;8.690;2023-04-16T11:25:20;19.77;;;9.75;;
14169;SDS011;63889;50.596;8.690;2023-04-16T11:27:47;19.58;;;10.10;;
14169;SDS011;63889;50.596;8.690;2023-04-16T11:30:13;17.92;;;9.05;;
14169;SDS011;63889;50.596;8.690;2023-04-16T11:32:39;17.13;;;9.98;;
14169;SDS011;63889;50.596;8.690;2023-04-16T11:35:15;17.80;;;9.65;;
14169;SDS011;63889;50.596;8.690;2023-04-16T11:37:41;24.92;;;9.80;;
14169;SDS011;63889;50.596;8.690;2023-04-16T11:40:08;20.80;;;9.48;;
14169;SDS011;63889;50.596;8.690;2023-04-16T11:42:35;16.40;;;8.80;;
14169;SDS011;63889;50.596;8.690;2023-04-16T11:45:02;16.65;;;9.75;;
14169;SDS011;63889;50.596;8.690;2023-04-16T11:47:28;16.85;;;9.32;;
14169;SDS011;63889;50.596;8.690;2023-04-16T11:49:55;20.27;;;9.40;;
14169;SDS011;63889;50.596;8.690;2023-04-16T11:54:55;14.50;;;8.98;;
14169;SDS011;63889;50.596;8.690;2023-04-16T11:59:53;16.33;;;8.50;;
14169;SDS011;63889;50.596;8.690;2023-04-16T12:02:33;17.83;;;8.38;;
14169;SDS011;63889;50.596;8.690;2023-04-16T12:04:59;16.05;;;7.53;;
14169;SDS011;63889;50.596;8.690;2023-04-16T12:07:25;15.20;;;7.90;;
14169;SDS011;63889;50.596;8.690;2023-04-16T12:10:03;15.00;;;7.95;;
14169;SDS011;63889;50.596;8.690;2023-04-16T12:12:31;12.93;;;7.85;;
14169;SDS011;63889;50.596;8.690;2023-04-16T12:14:56;13.93;;;7.00;;
14169;SDS011;63889;50.596;8.690;2023-04-16T12:17:27;14.48;;;7.35;;
14169;SDS011;63889;50.596;8.690;2023-04-16T12:20:00;18.88;;;7.72;;
14169;SDS011;63889;50.596;8.690;2023-04-16T12:22:30;15.45;;;7.60;;
14169;SDS011;63889;50.596;8.690;2023-04-16T12:25:01;11.65;;;6.75;;
14169;SDS011;63889;50.596;8.690;2023-04-16T12:27:45;12.80;;;7.18;;
14169;SDS011;63889;50.596;8.690;2023-04-16T12:30:19;11.15;;;6.80;;
14169;SDS011;63889;50.596;8.690;2023-04-16T12:32:47;9.95;;;6.18;;
14169;SDS011;63889;50.596;8.690;2023-04-16T12:35:30;10.98;;;6.13;;
14169;SDS011;63889;50.596;8.690;2023-04-16T12:37:57;10.50;;;6.57;;
14169;SDS011;63889;50.596;8.690;2023-04-16T12:40:23;10.82;;;6.15;;
14169;SDS011;63889;50.596;8.690;2023-04-16T12:42:49;12.13;;;5.88;;
14169;SDS011;63889;50.596;8.690;2023-04-16T12:45:14;11.20;;;6.45;;
14169;SDS011;63889;50.596;8.690;2023-04-16T12:47:40;9.45;;;6.13;;
14169;SDS011;63889;50.596;8.690;2023-04-16T12:50:06;12.25;;;6.35;;
14169;SDS011;63889;50.596;8.690;2023-04-16T12:52:32;10.30;;;5.78;;
14169;SDS011;63889;50.596;8.690;2023-04-16T12:54:58;11.35;;;5.75;;
14169;SDS011;63889;50.596;8.690;2023-04-16T12:57:25;11.48;;;6.43;;
14169;SDS011;63889;50.596;8.690;2023-04-16T12:59:53;12.25;;;6.00;;
14169;SDS011;63889;50.596;8.690;2023-04-16T13:02:22;11.38;;;6.22;;
14169;SDS011;63889;50.596;8.690;2023-04-16T13:04:49;12.15;;;6.00;;
14169;SDS011;63889;50.596;8.690;2023-04-16T13:07:15;10.43;;;5.72;;
14169;SDS011;63889;50.596;8.690;2023-04-16T13:09:41;11.43;;;6.05;;
14169;SDS011;63889;50.596;8.690;2023-04-16T13:12:07;11.75;;;6.55;;
14169;SDS011;63889;50.596;8.690;2023-04-16T13:14:33;10.98;;;5.63;;
14169;SDS011;63889;50.596;8.690;2023-04-16T13:16:59;14.13;;;6.20;;
14169;SDS011;63889;50.596;8.690;2023-04-16T13:19:25;10.02;;;6.00;;
14169;SDS011;63889;50.596;8.690;2023-04-16T13:21:50;11.10;;;5.85;;
14169;SDS011;63889;50.596;8.690;2023-04-16T13:24:16;11.38;;;5.78;;
14169;SDS011;63889;50.596;8.690;2023-04-16T13:26:43;9.85;;;5.88;;
14169;SDS011;63889;50.596;8.690;2023-04-16T13:29:08;15.07;;;5.35;;
14169;SDS011;63889;50.596;8.690;2023-04-16T13:31:34;10.68;;;4.95;;
14169;SDS011;63889;50.596;8.690;2023-04-16T13:34:00;9.35;;;4.88;;
14169;SDS011;63889;50.596;8.690;2023-04-16T13:36:27;9.27;;;5.13;;
14169;SDS011;63889;50.596;8.690;2023-04-16T13:38:53;8.05;;;4.10;;
14169;SDS011;63889;50.596;8.690;2023-04-16T13:41:19;7.70;;;4.38;;
14169;SDS011;63889;50.596;8.690;2023-04-16T13:43:45;6.57;;;4.13;;
14169;SDS011;63889;50.596;8.690;2023-04-16T13:46:10;8.55;;;5.28;;
14169;SDS011;63889;50.596;8.690;2023-04-16T13:48:36;9.93;;;4.35;;
14169;SDS011;63889;50.596;8.690;2023-04-16T13:51:01;6.63;;;4.22;;
14169;SDS011;63889;50.596;8.690;2023-04-16T13:53:27;8.38;;;4.45;;
14169;SDS011;63889;50.596;8.690;2023-04-16T13:55:53;8.00;;;4.28;;
14169;SDS011;63889;50.596;8.690;2023-04-16T13:58:18;7.15;;;4.15;;
14169;SDS011;63889;50.596;8.690;2023-04-16T14:00:44;10.15;;;5.32;;
14169;SDS011;63889;50.596;8.690;2023-04-16T14:03:09;8.85;;;4.75;;
14169;SDS011;63889;50.596;8.690;2023-04-16T14:05:35;8.90;;;4.50;;
14169;SDS011;63889;50.596;8.690;2023-04-16T14:08:00;9.60;;;5.05;;
14169;SDS011;63889;50.596;8.690;2023-04-16T14:10:26;10.32;;;5.28;;
14169;SDS011;63889;50.596;8.690;2023-04-16T14:12:52;10.25;;;4.70;;
14169;SDS011;63889;50.596;8.690;2023-04-16T14:15:17;8.48;;;4.90;;
14169;SDS011;63889;50.596;8.690;2023-04-16T14:17:43;7.90;;;4.82;;
14169;SDS011;63889;50.596;8.690;2023-04-16T14:20:10;9.02;;;5.05;;
14169;SDS011;63889;50.596;8.690;2023-04-16T14:22:36;9.10;;;5.35;;
14169;SDS011;63889;50.596;8.690;2023-04-16T14:25:02;10.82;;;6.20;;
14169;SDS011;63889;50.596;8.690;2023-04-16T14:27:28;12.65;;;6.28;;
14169;SDS011;63889;50.596;8.690;2023-04-16T14:29:54;12.30;;;6.05;;
14169;SDS011;63889;50.596;8.690;2023-04-16T14:32:20;11.27;;;5.63;;
14169;SDS011;63889;50.596;8.690;2023-04-16T14:34:45;12.43;;;6.50;;
14169;SDS011;63889;50.596;8.690;2023-04-16T14:37:11;10.32;;;6.07;;
14169;SDS011;63889;50.596;8.690;2023-04-16T14:39:37;12.35;;;6.97;;
14169;SDS011;63889;50.596;8.690;2023-04-16T14:42:03;11.95;;;6.75;;
14169;SDS011;63889;50.596;8.690;2023-04-16T14:44:30;11.40;;;6.72;;
14169;SDS011;63889;50.596;8.690;2023-04-16T14:46:56;13.30;;;7.90;;